Adrar, Algeria
Current Conditions -  °F | °C
As of 10:00 AM on Sunday 21 Dec 2014 (Local Time) from DAUA Reporting Station
Clear Clear  
Wind Chill: 50°   Ceiling: Unl
Heat Index: 50°   Visibility: 6mi
Dew Point: 32°   Wind: 15mph
Humidity: 50%   Direction: 20°NNE
Pressure: 30.33"   Gusts: NA
Location:  27.87°N, 0.29°W
Report Text: DAUA 210900Z 02013KT CAVOK 10/M00 Q1027
Loading
Personal Weather Stations






























Interactive Weather Map New forecast layout! Learn more

10-Day Weather Forecast

Advertisements
Track Severe Weather on mobile